createdAt,value
2018-03-21T00:01:11.834Z,27.83
2018-03-21T00:03:39.546Z,30.83
2018-03-21T00:06:06.998Z,30.23
2018-03-21T00:08:34.466Z,32.30
2018-03-21T00:11:02.227Z,31.63
2018-03-21T00:13:29.679Z,33.10
2018-03-21T00:15:57.149Z,34.80
2018-03-21T00:18:24.604Z,31.33
2018-03-21T00:20:52.074Z,30.20
2018-03-21T00:23:19.535Z,34.07
2018-03-21T00:25:47.002Z,30.80
2018-03-21T00:28:14.467Z,27.90
2018-03-21T00:30:42.194Z,29.13
2018-03-21T00:33:09.650Z,27.93
2018-03-21T00:35:37.114Z,28.83
2018-03-21T00:38:04.792Z,31.83
2018-03-21T00:40:32.258Z,32.00
2018-03-21T00:42:59.987Z,31.70
2018-03-21T00:45:27.486Z,29.83
2018-03-21T00:47:54.951Z,32.43
2018-03-21T00:50:22.405Z,32.20
2018-03-21T00:52:49.870Z,31.60
2018-03-21T00:55:17.339Z,33.57
2018-03-21T00:57:44.850Z,27.60
2018-03-21T01:00:12.493Z,34.43
2018-03-21T01:02:39.959Z,30.90
2018-03-21T01:05:07.426Z,30.10
2018-03-21T01:07:35.173Z,32.50
2018-03-21T01:10:02.648Z,31.33
2018-03-21T01:12:30.103Z,34.17
2018-03-21T01:14:57.576Z,32.63
2018-03-21T01:17:25.041Z,32.47
2018-03-21T01:19:52.502Z,37.47
2018-03-21T01:22:19.970Z,40.37
2018-03-21T01:24:48.222Z,35.30
2018-03-21T01:27:15.693Z,34.57
2018-03-21T01:29:43.151Z,36.13
2018-03-21T01:32:10.618Z,38.80
2018-03-21T01:34:38.076Z,39.20
2018-03-21T01:37:05.548Z,36.60
2018-03-21T01:39:33.791Z,39.80
2018-03-21T01:42:01.518Z,39.83
2018-03-21T01:44:28.982Z,43.17
2018-03-21T01:46:56.450Z,37.57
2018-03-21T01:49:23.907Z,38.60
2018-03-21T01:51:51.374Z,39.07
2018-03-21T01:54:18.848Z,36.33
2018-03-21T01:56:46.308Z,37.30
2018-03-21T01:59:13.774Z,36.73
2018-03-21T02:01:42.009Z,37.57
2018-03-21T02:04:09.482Z,38.13
2018-03-21T02:06:37.723Z,36.70
2018-03-21T02:09:05.186Z,36.43
2018-03-21T02:11:32.647Z,35.53
2018-03-21T02:14:00.129Z,34.73
2018-03-21T02:16:27.604Z,31.77
2018-03-21T02:18:56.139Z,35.20
2018-03-21T02:21:23.610Z,30.50
2018-03-21T02:23:51.365Z,34.33
2018-03-21T02:26:18.838Z,34.80
2018-03-21T02:28:46.314Z,39.67
2018-03-21T02:31:13.782Z,33.77
2018-03-21T02:33:41.244Z,38.03
2018-03-21T02:36:08.943Z,34.10
2018-03-21T02:38:36.418Z,38.03
2018-03-21T02:41:03.877Z,33.63
2018-03-21T02:43:31.355Z,34.20
2018-03-21T02:45:58.810Z,36.53
2018-03-21T02:48:26.277Z,36.87
2018-03-21T02:50:53.758Z,40.90
2018-03-21T02:53:21.231Z,38.23
2018-03-21T02:55:49.020Z,40.60
2018-03-21T02:58:16.515Z,37.07
2018-03-21T03:00:43.978Z,38.50
2018-03-21T03:03:11.442Z,35.77
2018-03-21T03:05:38.907Z,36.60
2018-03-21T03:08:07.176Z,36.80
2018-03-21T03:10:34.853Z,36.90
2018-03-21T03:13:03.090Z,37.07
2018-03-21T03:15:30.556Z,35.63
2018-03-21T03:17:58.022Z,32.13
2018-03-21T03:20:25.739Z,34.10
2018-03-21T03:22:53.207Z,29.87
2018-03-21T03:25:20.682Z,30.93
2018-03-21T03:27:48.147Z,31.27
2018-03-21T03:30:15.624Z,30.87
2018-03-21T03:32:43.080Z,30.63
2018-03-21T03:35:10.586Z,32.43
2018-03-21T03:37:38.046Z,33.13
2018-03-21T03:40:05.518Z,33.63
2018-03-21T03:42:32.994Z,30.57
2018-03-21T03:45:00.708Z,30.57
2018-03-21T03:47:28.188Z,32.97
2018-03-21T03:49:55.655Z,33.53
2018-03-21T03:52:23.130Z,32.20
2018-03-21T03:54:50.598Z,30.60
2018-03-21T03:57:18.071Z,33.10
2018-03-21T03:59:46.310Z,32.50
2018-03-21T04:02:13.779Z,32.27
2018-03-21T04:04:41.504Z,30.23
2018-03-21T04:07:09.267Z,30.90
2018-03-21T04:09:36.759Z,32.83
2018-03-21T04:12:04.242Z,31.63
2018-03-21T04:14:32.489Z,33.77
2018-03-21T04:17:00.218Z,34.67
2018-03-21T04:19:27.682Z,31.70
2018-03-21T04:21:55.149Z,30.53
2018-03-21T04:24:22.614Z,33.90
2018-03-21T04:26:50.086Z,28.60
2018-03-21T04:29:17.542Z,29.93
2018-03-21T04:31:45.026Z,30.67
2018-03-21T04:34:13.267Z,31.87
2018-03-21T04:36:40.744Z,29.33
2018-03-21T04:39:08.217Z,33.17
2018-03-21T04:41:36.446Z,34.70
2018-03-21T04:44:04.678Z,28.83
2018-03-21T04:46:33.184Z,28.57
2018-03-21T04:49:00.656Z,33.00
2018-03-21T04:51:28.131Z,28.87
2018-03-21T04:53:55.595Z,29.17
2018-03-21T04:56:23.058Z,30.37
2018-03-21T04:58:50.528Z,31.33
2018-03-21T05:01:18.776Z,31.23
2018-03-21T05:03:46.242Z,28.50
2018-03-21T05:06:13.712Z,27.30
2018-03-21T05:08:41.174Z,30.67
2018-03-21T05:11:08.673Z,29.70
2018-03-21T05:13:36.134Z,27.47
2018-03-21T05:16:03.614Z,30.10
2018-03-21T05:18:32.067Z,28.60
2018-03-21T05:20:59.528Z,30.93
2018-03-21T05:23:27.003Z,26.33
2018-03-21T05:25:54.474Z,27.47
2018-03-21T05:28:22.001Z,25.13
2018-03-21T05:30:49.475Z,28.20
2018-03-21T05:33:17.225Z,41.93
2018-03-21T05:35:44.696Z,22.03
2018-03-21T05:38:12.158Z,21.37
2018-03-21T05:40:39.763Z,21.07
2018-03-21T05:43:07.233Z,18.03
2018-03-21T05:45:35.470Z,19.63
2018-03-21T05:48:02.974Z,17.83
2018-03-21T05:50:30.415Z,18.80
2018-03-21T05:52:58.685Z,19.80
2018-03-21T05:55:26.909Z,19.10
2018-03-21T05:57:54.598Z,19.00
2018-03-21T06:00:22.058Z,20.20
2018-03-21T06:02:49.530Z,23.53
2018-03-21T06:05:16.993Z,17.53
2018-03-21T06:07:44.458Z,16.57
2018-03-21T06:10:11.929Z,17.33
2018-03-21T06:12:39.386Z,15.83
2018-03-21T06:15:06.858Z,16.30
2018-03-21T06:17:34.352Z,17.03
2018-03-21T06:20:02.042Z,16.33
2018-03-21T06:22:29.750Z,17.70
2018-03-21T06:24:57.234Z,15.77
2018-03-21T06:27:24.707Z,17.93
2018-03-21T06:29:52.183Z,17.40
2018-03-21T06:32:20.421Z,14.03
2018-03-21T06:34:47.899Z,17.17
2018-03-21T06:37:15.357Z,14.77
2018-03-21T06:39:42.826Z,14.30
2018-03-21T06:42:11.054Z,14.07
2018-03-21T06:44:38.524Z,13.47
2018-03-21T06:47:05.998Z,17.23
2018-03-21T06:49:33.671Z,14.93
2018-03-21T06:52:01.139Z,15.10
2018-03-21T06:54:28.594Z,11.83
2018-03-21T06:56:56.826Z,13.60
2018-03-21T06:59:24.287Z,13.13
2018-03-21T07:01:51.754Z,14.60
2018-03-21T07:04:19.230Z,11.97
2018-03-21T07:06:46.690Z,13.03
2018-03-21T07:09:14.157Z,11.27
2018-03-21T07:11:42.383Z,11.77
2018-03-21T07:14:21.806Z,13.13
2018-03-21T07:16:49.267Z,11.03
2018-03-21T07:19:16.731Z,13.83
2018-03-21T07:21:44.183Z,10.67
2018-03-21T07:24:11.949Z,10.97
2018-03-21T07:26:39.406Z,10.97
2018-03-21T07:29:06.868Z,9.13
2018-03-21T07:31:34.325Z,10.00
2018-03-21T07:34:01.790Z,10.77
2018-03-21T07:36:29.254Z,9.80
2018-03-21T07:38:56.713Z,10.63
2018-03-21T07:41:24.176Z,10.90
2018-03-21T07:43:51.671Z,9.67
2018-03-21T07:46:19.895Z,10.30
2018-03-21T07:48:47.350Z,9.97
2018-03-21T07:51:15.582Z,10.83
2018-03-21T07:53:43.037Z,10.07
2018-03-21T07:56:10.727Z,10.43
2018-03-21T07:58:38.194Z,9.23
2018-03-21T08:01:05.650Z,10.40
2018-03-21T08:03:33.116Z,11.20
2018-03-21T08:06:00.566Z,10.20
2018-03-21T08:08:28.037Z,10.07
2018-03-21T08:10:55.503Z,10.73
2018-03-21T08:13:22.966Z,9.93
2018-03-21T08:15:50.474Z,10.83
2018-03-21T08:18:17.895Z,9.03
2018-03-21T08:20:45.355Z,10.67
2018-03-21T08:23:12.811Z,8.63
2018-03-21T08:25:40.279Z,8.30
2018-03-21T08:28:09.104Z,9.80
2018-03-21T08:30:36.572Z,9.27
2018-03-21T08:33:04.032Z,11.37
2018-03-21T08:35:31.488Z,9.10
2018-03-21T08:37:58.960Z,9.10
2018-03-21T08:40:26.421Z,9.13
2018-03-21T08:42:53.896Z,11.37
2018-03-21T08:45:23.358Z,9.63
2018-03-21T08:47:50.825Z,10.67
2018-03-21T08:50:18.274Z,10.30
2018-03-21T08:52:45.747Z,11.33
2018-03-21T08:55:13.198Z,9.57
2018-03-21T08:57:40.658Z,10.17
2018-03-21T09:00:08.333Z,10.17
2018-03-21T09:02:35.802Z,9.37
2018-03-21T09:05:03.264Z,9.80
2018-03-21T09:07:30.778Z,9.73
2018-03-21T09:09:59.004Z,9.70
2018-03-21T09:12:26.468Z,10.43
2018-03-21T09:14:54.700Z,11.70
2018-03-21T09:17:22.165Z,10.17
2018-03-21T09:19:49.638Z,10.13
2018-03-21T09:22:17.095Z,10.47
2018-03-21T09:24:44.555Z,11.23
2018-03-21T09:27:12.026Z,10.23
2018-03-21T09:29:40.270Z,10.17
2018-03-21T09:32:07.728Z,9.43
2018-03-21T09:34:35.189Z,9.83
2018-03-21T09:37:02.648Z,10.30
2018-03-21T09:39:30.119Z,10.10
2018-03-21T09:41:57.582Z,11.80
2018-03-21T09:44:25.049Z,10.20
2018-03-21T09:46:53.274Z,12.33
2018-03-21T09:49:20.741Z,11.23
2018-03-21T09:51:48.203Z,11.07
2018-03-21T09:54:15.666Z,10.80
2018-03-21T09:56:43.128Z,11.47
2018-03-21T09:59:10.581Z,10.97
2018-03-21T10:01:38.056Z,11.23
2018-03-21T10:04:05.517Z,10.83
2018-03-21T10:06:32.984Z,12.43
2018-03-21T10:09:01.202Z,11.87
2018-03-21T10:11:28.675Z,11.10
2018-03-21T10:13:56.138Z,11.50
2018-03-21T10:16:24.590Z,13.70
2018-03-21T10:18:52.064Z,13.23
2018-03-21T10:21:19.808Z,12.17
2018-03-21T10:23:47.288Z,14.13
2018-03-21T10:26:14.735Z,12.90
2018-03-21T10:28:42.200Z,13.53
2018-03-21T10:31:09.651Z,12.70
2018-03-21T10:33:37.110Z,11.60
2018-03-21T10:36:04.857Z,12.87
2018-03-21T10:38:32.322Z,12.57
2018-03-21T10:40:59.784Z,12.70
2018-03-21T10:43:27.262Z,13.63
2018-03-21T10:45:54.729Z,14.90
2018-03-21T10:48:22.181Z,12.57
2018-03-21T10:50:49.646Z,12.83
2018-03-21T10:53:17.122Z,11.90
2018-03-21T10:55:45.642Z,12.40
2018-03-21T10:58:13.103Z,12.53
2018-03-21T11:00:40.578Z,11.90
2018-03-21T11:03:08.053Z,11.67
2018-03-21T11:05:35.505Z,12.10
2018-03-21T11:08:02.974Z,12.57
2018-03-21T11:10:30.433Z,13.40
2018-03-21T11:12:57.893Z,12.10
2018-03-21T11:15:25.355Z,12.70
2018-03-21T11:17:53.399Z,11.50
2018-03-21T11:20:21.131Z,12.00
2018-03-21T11:22:48.605Z,11.13
2018-03-21T11:25:16.413Z,11.20
2018-03-21T11:27:43.838Z,12.17
2018-03-21T11:30:11.294Z,12.13
2018-03-21T11:32:38.759Z,12.30
2018-03-21T11:35:06.487Z,12.37
2018-03-21T11:37:33.954Z,11.50
2018-03-21T11:40:01.415Z,10.37
2018-03-21T11:42:29.164Z,11.97
2018-03-21T11:44:56.638Z,11.47
2018-03-21T11:47:24.389Z,10.83
2018-03-21T11:49:51.848Z,11.13
2018-03-21T11:52:19.315Z,10.10
2018-03-21T11:54:46.775Z,9.57
2018-03-21T11:57:14.242Z,11.30
2018-03-21T11:59:41.709Z,12.80
2018-03-21T12:02:09.158Z,9.50
2018-03-21T12:04:36.833Z,12.30
2018-03-21T12:07:04.290Z,8.77
2018-03-21T12:09:31.838Z,10.80
2018-03-21T12:11:59.570Z,9.27
2018-03-21T12:14:27.039Z,9.57
2018-03-21T12:16:54.498Z,10.57
2018-03-21T12:19:21.978Z,12.00
2018-03-21T12:21:49.437Z,9.13
2018-03-21T12:24:16.907Z,9.70
2018-03-21T12:26:44.404Z,9.83
2018-03-21T12:29:11.874Z,9.87
2018-03-21T12:31:39.347Z,10.73
2018-03-21T12:34:06.805Z,9.67
2018-03-21T12:36:34.311Z,10.27
2018-03-21T12:39:02.111Z,10.50
2018-03-21T12:41:29.574Z,9.63
2018-03-21T12:43:57.022Z,10.83
2018-03-21T12:46:24.484Z,9.87
2018-03-21T12:48:51.945Z,10.40
2018-03-21T12:51:19.415Z,11.27
2018-03-21T12:53:46.874Z,8.57
2018-03-21T12:56:14.416Z,8.93
2018-03-21T12:58:41.815Z,9.33
2018-03-21T13:01:09.278Z,9.93
2018-03-21T13:03:36.734Z,12.00
2018-03-21T13:06:04.203Z,5.60
2018-03-21T13:08:32.425Z,6.67
2018-03-21T13:11:00.173Z,6.57
2018-03-21T13:13:27.644Z,7.83
2018-03-21T13:15:55.166Z,6.93
2018-03-21T13:18:22.623Z,9.43
2018-03-21T13:20:50.860Z,14.37
2018-03-21T13:23:18.332Z,11.60
2018-03-21T13:25:46.045Z,14.03
2018-03-21T13:28:13.815Z,15.70
2018-03-21T13:30:41.281Z,11.43
2018-03-21T13:33:09.849Z,16.43
2018-03-21T13:35:37.320Z,12.30
2018-03-21T13:38:04.785Z,11.20
2018-03-21T13:40:32.264Z,13.60
2018-03-21T13:42:59.738Z,11.57
2018-03-21T13:45:28.263Z,10.00
2018-03-21T13:47:55.728Z,10.53
2018-03-21T13:50:23.195Z,10.33
2018-03-21T13:52:50.654Z,27.70
2018-03-21T13:55:18.887Z,9.80
2018-03-21T13:57:47.217Z,11.47
2018-03-21T14:00:14.654Z,12.07
2018-03-21T14:02:42.122Z,12.93
2018-03-21T14:05:09.590Z,9.10
2018-03-21T14:07:37.048Z,9.70
2018-03-21T14:10:04.502Z,10.93
2018-03-21T14:12:31.973Z,11.40
2018-03-21T14:14:59.439Z,14.70
2018-03-21T14:17:26.896Z,13.10
2018-03-21T14:19:54.360Z,9.57
2018-03-21T14:22:21.850Z,8.87
2018-03-21T14:24:50.085Z,12.03
2018-03-21T14:27:17.539Z,10.50
2018-03-21T14:29:45.007Z,9.03
2018-03-21T14:32:13.247Z,83.40
2018-03-21T14:34:40.710Z,9.20
2018-03-21T14:37:08.179Z,11.10
2018-03-21T14:39:36.398Z,9.50
2018-03-21T14:42:03.864Z,8.17
2018-03-21T14:44:31.322Z,10.40
2018-03-21T14:46:58.786Z,9.63
2018-03-21T14:49:26.320Z,8.73
2018-03-21T14:51:53.722Z,9.93
2018-03-21T14:54:21.187Z,9.00
2018-03-21T14:56:48.663Z,9.43
2018-03-21T14:59:16.138Z,9.60
2018-03-21T15:01:44.351Z,9.13
2018-03-21T15:04:11.839Z,10.07
2018-03-21T15:06:39.319Z,9.17
2018-03-21T15:09:07.582Z,8.03
2018-03-21T15:11:35.051Z,10.27
2018-03-21T15:14:02.763Z,8.70
2018-03-21T15:16:30.222Z,8.13
2018-03-21T15:18:57.682Z,10.03
2018-03-21T15:21:25.138Z,8.17
2018-03-21T15:23:52.598Z,8.10
2018-03-21T15:26:20.363Z,8.80
2018-03-21T15:28:47.819Z,9.70
2018-03-21T15:31:15.278Z,10.90
2018-03-21T15:33:42.740Z,9.70
2018-03-21T15:36:10.416Z,8.63
2018-03-21T15:38:37.883Z,9.73
2018-03-21T15:41:05.333Z,8.63
2018-03-21T15:43:32.798Z,9.13
2018-03-21T15:46:00.255Z,8.90
2018-03-21T15:48:27.716Z,8.80
2018-03-21T15:50:55.178Z,8.47
2018-03-21T15:53:22.685Z,8.30
2018-03-21T15:55:50.138Z,7.90
2018-03-21T15:58:17.612Z,9.63
2018-03-21T16:00:45.325Z,7.53
2018-03-21T16:03:13.551Z,7.57
2018-03-21T16:05:41.018Z,8.33
2018-03-21T16:08:08.759Z,7.50
2018-03-21T16:10:36.431Z,8.20
2018-03-21T16:13:04.659Z,8.43
2018-03-21T16:15:32.894Z,7.33
2018-03-21T16:18:00.355Z,9.37
2018-03-21T16:20:27.811Z,7.33
2018-03-21T16:22:55.267Z,11.33
2018-03-21T16:25:23.503Z,7.13
2018-03-21T16:27:50.954Z,7.67
2018-03-21T16:30:18.431Z,8.00
2018-03-21T16:32:45.885Z,7.57
2018-03-21T16:35:13.651Z,7.83
2018-03-21T16:37:41.110Z,7.77
2018-03-21T16:40:08.566Z,8.07
2018-03-21T16:42:36.149Z,7.50
2018-03-21T16:45:03.612Z,8.03
2018-03-21T16:47:31.072Z,7.53
2018-03-21T16:49:58.536Z,6.87
2018-03-21T16:52:25.998Z,7.80
2018-03-21T16:54:53.458Z,9.10
2018-03-21T16:57:20.929Z,9.07
2018-03-21T16:59:49.202Z,10.13
2018-03-21T17:02:17.509Z,7.97
2018-03-21T17:04:44.977Z,8.40
2018-03-21T17:07:12.443Z,10.27
2018-03-21T17:09:40.203Z,7.43
2018-03-21T17:12:07.690Z,9.27
2018-03-21T17:14:35.168Z,8.00
2018-03-21T17:17:03.418Z,6.63
2018-03-21T17:19:30.882Z,8.90
2018-03-21T17:21:58.334Z,9.77
2018-03-21T17:24:25.814Z,7.67
2018-03-21T17:26:54.049Z,7.10
2018-03-21T17:29:21.510Z,8.07
2018-03-21T17:31:48.954Z,8.47
2018-03-21T17:34:16.409Z,9.27
2018-03-21T17:36:43.868Z,8.50
2018-03-21T17:39:11.334Z,7.60
2018-03-21T17:41:38.808Z,9.20
2018-03-21T17:44:06.259Z,9.20
2018-03-21T17:46:33.731Z,7.07
2018-03-21T17:49:01.205Z,6.40
2018-03-21T17:51:28.671Z,8.87
2018-03-21T17:53:56.893Z,8.73
2018-03-21T17:56:24.350Z,7.30
2018-03-21T17:58:51.817Z,9.23
2018-03-21T18:01:20.042Z,12.67
2018-03-21T18:03:48.275Z,10.20
2018-03-21T18:06:15.737Z,10.07
2018-03-21T18:08:43.204Z,18.10
2018-03-21T18:11:10.670Z,13.60
2018-03-21T18:13:38.132Z,11.70
2018-03-21T18:16:05.839Z,14.30
2018-03-21T18:18:33.515Z,13.83
2018-03-21T18:21:01.269Z,11.93
2018-03-21T18:23:28.728Z,15.83
2018-03-21T18:25:56.195Z,13.90
2018-03-21T18:28:23.659Z,14.53
2018-03-21T18:30:51.125Z,13.60
2018-03-21T18:33:18.586Z,17.67
2018-03-21T18:35:46.056Z,20.57
2018-03-21T18:38:13.517Z,14.40
2018-03-21T18:40:40.970Z,14.57
2018-03-21T18:43:08.439Z,14.77
2018-03-21T18:45:36.662Z,19.33
2018-03-21T18:48:04.124Z,13.50
2018-03-21T18:50:31.584Z,15.10
2018-03-21T18:52:59.047Z,15.27
2018-03-21T18:55:26.513Z,17.33
2018-03-21T18:57:54.713Z,15.57
2018-03-21T19:00:22.179Z,13.17
2018-03-21T19:02:50.414Z,13.10
2018-03-21T19:05:17.874Z,12.07
2018-03-21T19:07:45.324Z,15.93
2018-03-21T19:10:13.079Z,13.60
2018-03-21T19:12:40.539Z,17.77
2018-03-21T19:15:08.002Z,14.43
2018-03-21T19:17:35.678Z,13.93
2018-03-21T19:20:03.371Z,15.73
2018-03-21T19:22:31.598Z,14.87
2018-03-21T19:24:59.051Z,14.47
2018-03-21T19:27:26.513Z,14.37
2018-03-21T19:29:53.970Z,13.17
2018-03-21T19:32:21.440Z,13.30
2018-03-21T19:34:48.895Z,12.90
2018-03-21T19:37:16.634Z,19.20
2018-03-21T19:39:44.142Z,13.23
2018-03-21T19:42:11.570Z,14.63
2018-03-21T19:44:39.255Z,16.80
2018-03-21T19:47:06.723Z,19.97
2018-03-21T19:49:34.177Z,15.03
2018-03-21T19:52:01.669Z,16.07
2018-03-21T19:54:29.139Z,14.97
2018-03-21T19:56:56.598Z,18.10
2018-03-21T19:59:24.293Z,17.50
2018-03-21T20:01:51.754Z,14.70
2018-03-21T20:04:19.229Z,15.90
2018-03-21T20:06:46.690Z,15.73
2018-03-21T20:09:14.925Z,13.37
2018-03-21T20:11:42.671Z,16.67
2018-03-21T20:14:10.435Z,15.97
2018-03-21T20:16:38.134Z,21.10
2018-03-21T20:19:05.870Z,19.37
2018-03-21T20:21:33.386Z,16.53
2018-03-21T20:24:01.614Z,17.57
2018-03-21T20:26:29.071Z,19.53
2018-03-21T20:28:56.555Z,15.00
2018-03-21T20:31:24.025Z,17.17
2018-03-21T20:33:52.270Z,17.87
2018-03-21T20:36:20.508Z,18.50
2018-03-21T20:38:47.988Z,15.47
2018-03-21T20:41:15.448Z,17.07
2018-03-21T20:43:42.918Z,16.13
2018-03-21T20:46:10.652Z,16.27
2018-03-21T20:48:38.114Z,16.53
2018-03-21T20:51:05.603Z,16.23
2018-03-21T20:53:33.058Z,17.93
2018-03-21T20:56:00.530Z,13.53
2018-03-21T20:58:28.222Z,17.17
2018-03-21T21:00:56.735Z,15.00
2018-03-21T21:03:24.206Z,18.93
2018-03-21T21:05:51.924Z,24.20
2018-03-21T21:08:21.174Z,14.97
2018-03-21T21:10:49.427Z,13.13
2018-03-21T21:13:16.903Z,20.70
2018-03-21T21:15:44.377Z,19.67
2018-03-21T21:18:11.844Z,21.00
2018-03-21T21:20:39.306Z,15.23
2018-03-21T21:23:06.767Z,14.87
2018-03-21T21:25:36.030Z,12.30
2018-03-21T21:28:04.276Z,13.73
2018-03-21T21:30:31.775Z,15.97
2018-03-21T21:32:59.243Z,14.90
2018-03-21T21:35:26.715Z,15.70
2018-03-21T21:37:54.960Z,14.57
2018-03-21T21:40:22.430Z,18.20
2018-03-21T21:42:50.152Z,15.67
2018-03-21T21:45:17.654Z,15.07
2018-03-21T21:47:45.106Z,14.27
2018-03-21T21:50:12.782Z,14.73
2018-03-21T21:52:40.253Z,13.73
2018-03-21T21:55:08.483Z,14.87
2018-03-21T21:57:35.951Z,12.73
2018-03-21T22:00:03.423Z,13.40
2018-03-21T22:02:31.662Z,12.43
2018-03-21T22:04:59.134Z,13.23
2018-03-21T22:07:26.595Z,12.17
2018-03-21T22:09:54.067Z,15.90
2018-03-21T22:12:23.354Z,14.23
2018-03-21T22:14:50.826Z,15.80
2018-03-21T22:17:18.305Z,14.17
2018-03-21T22:19:46.535Z,14.80
2018-03-21T22:22:14.277Z,13.13
2018-03-21T22:24:45.962Z,14.73
2018-03-21T22:27:13.429Z,13.40
2018-03-21T22:29:40.905Z,16.53
2018-03-21T22:32:08.378Z,14.30
2018-03-21T22:34:35.842Z,16.70
2018-03-21T22:37:03.315Z,16.53
2018-03-21T22:39:30.787Z,15.07
2018-03-21T22:41:58.250Z,12.53
2018-03-21T22:44:25.718Z,14.90
2018-03-21T22:46:53.183Z,13.67
2018-03-21T22:49:20.649Z,14.83
2018-03-21T22:51:48.115Z,13.60
2018-03-21T22:54:15.593Z,16.50
2018-03-21T22:56:43.815Z,15.40
2018-03-21T22:59:11.279Z,14.73
2018-03-21T23:01:39.502Z,15.50
2018-03-21T23:04:07.006Z,16.83
2018-03-21T23:06:35.614Z,17.73
2018-03-21T23:09:03.043Z,17.90
2018-03-21T23:11:30.515Z,17.57
2018-03-21T23:13:58.215Z,16.07
2018-03-21T23:16:26.490Z,16.93
2018-03-21T23:18:53.954Z,18.70
2018-03-21T23:21:22.186Z,18.13
2018-03-21T23:23:49.659Z,15.53
2018-03-21T23:26:17.122Z,18.10
2018-03-21T23:28:44.594Z,15.07
2018-03-21T23:31:12.817Z,16.47
2018-03-21T23:33:40.294Z,19.00
2018-03-21T23:36:07.766Z,19.10
2018-03-21T23:38:36.016Z,19.73
2018-03-21T23:41:03.521Z,15.57
2018-03-21T23:43:31.755Z,15.53
2018-03-21T23:45:59.230Z,14.77
2018-03-21T23:48:26.915Z,16.23
2018-03-21T23:50:55.155Z,18.80
2018-03-21T23:53:22.630Z,15.13
2018-03-21T23:55:50.875Z,14.73
2018-03-21T23:58:18.343Z,15.57
